Time;durP1;ratioP1;P1;durP2;ratioP2;P2;SDS_P1;SDS_P2;PMS_P1;PMS_P2;Temp;Humidity;BMP_temperature;BMP_pressure;BME280_temperature;BME280_humidity;BME280_pressure;Samples;Min_cycle;Max_cycle;Signal;HPM_P1;HPM_P2
2021/11/13 00:00:36;;;;;;;49.40;25.73;;;;;;;7.04;100.00;100838.03;2091185;28;20029;-64
2021/11/13 00:01:36;;;;;;;50.10;24.75;;;;;;;7.05;100.00;100844.94;2091148;28;20171;-63
2021/11/13 00:02:37;;;;;;;46.67;23.40;;;;;;;7.06;100.00;100837.13;2091148;28;20079;-64
2021/11/13 00:03:37;;;;;;;48.65;24.98;;;;;;;7.07;100.00;100832.75;2090940;28;20028;-66
2021/11/13 00:04:37;;;;;;;47.70;23.90;;;;;;;7.06;100.00;100836.25;2091136;28;20425;-64
2021/11/13 00:05:38;;;;;;;46.10;23.97;;;;;;;7.09;100.00;100843.97;2090502;28;20017;-64
2021/11/13 00:06:39;;;;;;;56.88;26.25;;;;;;;7.09;100.00;100838.78;2082166;28;20036;-64
2021/11/13 00:07:40;;;;;;;53.40;24.33;;;;;;;7.09;100.00;100841.38;2090586;28;20474;-65
2021/11/13 00:08:40;;;;;;;48.80;22.65;;;;;;;7.08;100.00;100840.50;2090476;28;20029;-65
2021/11/13 00:09:40;;;;;;;46.20;23.43;;;;;;;7.09;100.00;100837.00;2090585;28;20424;-65
2021/11/13 00:10:41;;;;;;;50.40;26.60;;;;;;;7.12;100.00;100838.66;2091088;28;20091;-65
2021/11/13 00:11:42;;;;;;;49.70;24.27;;;;;;;7.13;100.00;100842.97;2090495;28;20037;-65
2021/11/13 00:12:43;;;;;;;51.63;24.65;;;;;;;7.13;100.00;100842.97;2082228;28;20407;-64
2021/11/13 00:13:43;;;;;;;53.10;25.10;;;;;;;7.14;100.00;100839.50;2090480;28;20103;-65
2021/11/13 00:14:46;;;;;;;52.23;23.97;;;;;;;7.16;100.00;100839.44;2090367;28;20508;-64
2021/11/13 00:15:46;;;;;;;47.22;23.60;;;;;;;7.17;100.00;100836.81;2090387;28;20020;-64
2021/11/13 00:16:47;;;;;;;50.37;25.03;;;;;;;7.17;100.00;100834.22;2091029;28;20028;-65
2021/11/13 00:17:49;;;;;;;53.55;24.55;;;;;;;7.17;100.00;100836.81;2091034;28;20020;-64
2021/11/13 00:18:50;;;;;;;48.55;24.45;;;;;;;7.18;100.00;100829.84;2091009;28;20179;-64
2021/11/13 00:19:50;;;;;;;50.93;23.63;;;;;;;7.17;100.00;100829.03;2091001;28;20021;-64
2021/11/13 00:20:50;;;;;;;47.63;24.40;;;;;;;7.17;100.00;100831.63;2091033;28;20033;-64
2021/11/13 00:21:51;;;;;;;52.07;24.40;;;;;;;7.17;100.00;100828.16;2090322;28;20017;-64
2021/11/13 00:22:52;;;;;;;50.00;25.38;;;;;;;7.15;100.00;100830.81;2090401;28;20895;-64
2021/11/13 00:23:52;;;;;;;50.70;24.92;;;;;;;7.17;100.00;100825.56;2091083;28;20513;-65
2021/11/13 00:24:53;;;;;;;49.63;24.10;;;;;;;7.15;100.00;100825.59;2090290;28;20032;-65
2021/11/13 00:25:53;;;;;;;52.57;25.90;;;;;;;7.15;100.00;100825.59;2090355;28;20078;-65
2021/11/13 00:26:53;;;;;;;51.13;23.93;;;;;;;7.16;100.00;100816.94;2091018;28;20047;-64
2021/11/13 00:27:54;;;;;;;54.47;25.50;;;;;;;7.16;100.00;100810.91;2090871;28;20052;-65
2021/11/13 00:28:54;;;;;;;53.30;25.83;;;;;;;7.16;100.00;100822.13;2091031;28;20364;-65
2021/11/13 00:29:54;;;;;;;51.50;26.43;;;;;;;7.15;100.00;100812.63;2090994;28;20029;-65
2021/11/13 00:30:55;;;;;;;50.10;25.13;;;;;;;7.15;100.00;100810.03;2090926;28;20529;-64
2021/11/13 00:31:55;;;;;;;58.23;29.90;;;;;;;7.15;100.00;100810.03;2089743;28;20032;-64
2021/11/13 00:32:56;;;;;;;52.30;25.57;;;;;;;7.15;100.00;100804.84;2090403;28;20279;-63
2021/11/13 00:33:58;;;;;;;52.77;24.30;;;;;;;7.15;100.00;100804.84;2090170;28;20111;-64
2021/11/13 00:34:58;;;;;;;53.70;25.77;;;;;;;7.16;100.00;100801.38;2082106;28;20497;-64
2021/11/13 00:35:58;;;;;;;58.33;27.03;;;;;;;7.14;100.00;100805.75;2090312;28;20021;-65
2021/11/13 00:36:59;;;;;;;53.80;27.70;;;;;;;7.16;100.00;100810.91;2090882;28;20033;-64
2021/11/13 00:37:59;;;;;;;52.50;26.00;;;;;;;7.16;100.00;100806.56;2090900;28;20029;-64
2021/11/13 00:39:00;;;;;;;55.50;25.77;;;;;;;7.17;100.00;100797.00;2090892;28;20036;-64
2021/11/13 00:40:00;;;;;;;52.10;25.83;;;;;;;7.16;100.00;100796.19;2090744;28;20025;-64
2021/11/13 00:41:01;;;;;;;51.63;25.97;;;;;;;7.17;100.00;100797.00;2090913;28;20059;-64
2021/11/13 00:42:01;;;;;;;51.23;24.07;;;;;;;7.16;100.00;100797.91;2090195;28;20290;-65
2021/11/13 00:43:02;;;;;;;54.77;26.80;;;;;;;7.15;100.00;100797.06;2090321;28;20028;-64
2021/11/13 00:44:04;;;;;;;57.30;26.25;;;;;;;7.16;100.00;100795.31;2090829;28;20028;-65
2021/11/13 00:45:05;;;;;;;57.38;26.02;;;;;;;7.16;100.00;100800.50;2090818;28;20039;-65
2021/11/13 00:46:05;;;;;;;;;;;;;;;7.16;100.00;100801.38;2091123;28;20025;-64
2021/11/13 00:47:06;;;;;;;55.27;24.30;;;;;;;7.16;100.00;100791.00;2090888;28;19915;-65
2021/11/13 00:48:08;;;;;;;48.97;24.53;;;;;;;7.15;100.00;100789.28;2090813;28;20363;-64
2021/11/13 00:49:08;;;;;;;55.60;26.30;;;;;;;7.17;100.00;100795.28;2090794;28;20031;-64
2021/11/13 00:50:10;;;;;;;61.93;29.90;;;;;;;7.17;100.00;100792.69;2090765;28;20032;-64
2021/11/13 00:51:11;;;;;;;57.38;26.60;;;;;;;7.18;100.00;100793.53;2090077;28;20028;-64
2021/11/13 00:52:11;;;;;;;57.43;27.00;;;;;;;7.18;100.00;100798.72;2081822;28;20072;-65
2021/11/13 00:53:11;;;;;;;63.73;27.97;;;;;;;7.18;100.00;100786.59;2090096;28;20055;-64
2021/11/13 00:54:12;;;;;;;53.67;27.20;;;;;;;7.19;100.00;100788.28;2090097;28;20036;-63
2021/11/13 00:55:16;;;;;;;59.63;27.13;;;;;;;7.20;100.00;100786.56;2090188;28;20029;-63
2021/11/13 00:56:16;;;;;;;56.10;25.60;;;;;;;7.21;100.00;100783.06;2090702;28;20025;-63
2021/11/13 00:57:17;;;;;;;59.80;27.70;;;;;;;7.21;100.00;100783.91;2090766;28;20494;-65
2021/11/13 00:58:17;;;;;;;62.83;28.03;;;;;;;7.21;100.00;100780.47;2090657;28;20025;-65
2021/11/13 00:59:18;;;;;;;60.37;26.20;;;;;;;7.21;100.00;100781.31;2090757;28;20025;-65
2021/11/13 01:00:20;;;;;;;61.28;29.17;;;;;;;7.22;100.00;100776.97;2090691;28;20025;-64
2021/11/13 01:01:20;;;;;;;58.63;27.83;;;;;;;7.22;100.00;100775.22;2090576;28;20123;-66
2021/11/13 01:02:21;;;;;;;55.67;26.80;;;;;;;7.23;100.00;100776.09;2090688;28;20493;-64
2021/11/13 01:03:21;;;;;;;57.85;26.65;;;;;;;7.22;100.00;100770.03;2090675;28;20116;-65
2021/11/13 01:04:22;;;;;;;57.75;28.83;;;;;;;7.24;100.00;100763.94;2090427;28;20048;-65
2021/11/13 01:05:22;;;;;;;54.97;26.67;;;;;;;7.25;100.00;100769.09;2090066;28;20021;-65
2021/11/13 01:06:22;;;;;;;62.87;28.63;;;;;;;7.27;100.00;100761.25;2089893;28;20059;-65
2021/11/13 01:07:23;;;;;;;59.47;27.43;;;;;;;7.27;100.00;100766.44;2090013;28;20044;-64
2021/11/13 01:08:23;;;;;;;58.80;27.17;;;;;;;7.28;100.00;100765.53;2081769;28;20034;-64
2021/11/13 01:09:24;;;;;;;57.17;29.47;;;;;;;7.29;100.00;100764.69;2090034;28;20021;-64
2021/11/13 01:10:24;;;;;;;61.07;29.63;;;;;;;7.31;100.00;100762.88;2090598;28;20025;-64
2021/11/13 01:11:25;;;;;;;58.83;28.93;;;;;;;7.31;100.00;100760.25;2089989;28;20310;-64
2021/11/13 01:12:25;;;;;;;62.55;28.90;;;;;;;7.33;100.00;100761.09;2090030;28;20641;-65
2021/11/13 01:13:26;;;;;;;56.58;26.67;;;;;;;7.34;100.00;100768.84;2089989;28;20029;-64
2021/11/13 01:14:27;;;;;;;48.93;25.50;;;;;;;7.36;100.00;100765.34;2089991;28;20021;-64
2021/11/13 01:15:27;;;;;;;;;;;;;;;7.38;100.00;100764.38;2091035;28;20052;-64
2021/11/13 01:16:28;;;;;;;52.40;26.02;;;;;;;7.39;100.00;100760.88;2090516;28;20316;-64
2021/11/13 01:17:28;;;;;;;58.88;26.25;;;;;;;7.41;100.00;100772.09;2090559;28;20107;-65
2021/11/13 01:18:29;;;;;;;55.65;26.65;;;;;;;7.42;100.00;100766.00;2090551;28;20017;-65
2021/11/13 01:19:29;;;;;;;52.73;27.80;;;;;;;7.43;100.00;100765.09;2090571;28;20025;-64
2021/11/13 01:20:29;;;;;;;47.00;22.90;;;;;;;7.45;100.00;100765.03;2090538;28;20025;-64
2021/11/13 01:21:30;;;;;;;59.30;28.90;;;;;;;7.46;100.00;100769.34;2090610;28;20029;-65
2021/11/13 01:22:31;;;;;;;53.97;25.75;;;;;;;7.48;100.00;100767.53;2090509;28;20029;-66
2021/11/13 01:23:32;;;;;;;60.20;28.13;;;;;;;7.49;100.00;100760.63;2090508;28;20545;-65
2021/11/13 01:24:33;;;;;;;61.05;28.35;;;;;;;7.50;100.00;100772.69;2090495;28;20056;-64
2021/11/13 01:25:35;;;;;;;54.53;26.85;;;;;;;7.52;100.00;100768.31;2090507;28;20033;-64
2021/11/13 01:26:35;;;;;;;54.20;26.88;;;;;;;7.53;100.00;100770.00;2090449;28;20100;-64
2021/11/13 01:27:36;;;;;;;56.97;28.67;;;;;;;7.53;100.00;100763.06;2089826;28;20017;-64
2021/11/13 01:28:36;;;;;;;53.08;24.90;;;;;;;7.56;100.00;100762.97;2089810;28;20025;-65
2021/11/13 01:29:36;;;;;;;62.47;27.03;;;;;;;7.57;100.00;100753.44;2089892;28;20036;-65
2021/11/13 01:30:37;;;;;;;56.07;27.43;;;;;;;7.60;100.00;100763.75;2089882;28;20036;-65
2021/11/13 01:31:37;;;;;;;52.15;26.02;;;;;;;7.62;100.00;100761.09;2090504;28;20029;-64
2021/11/13 01:32:38;;;;;;;54.07;27.23;;;;;;;7.62;100.00;100759.31;2090455;28;20092;-65
2021/11/13 01:33:38;;;;;;;53.17;27.50;;;;;;;7.62;100.00;100756.72;2090463;28;20027;-64
2021/11/13 01:34:39;;;;;;;51.53;25.87;;;;;;;7.63;100.00;100755.00;2089726;28;20021;-63
2021/11/13 01:35:40;;;;;;;49.22;24.63;;;;;;;7.64;100.00;100759.28;2089886;28;20021;-64
2021/11/13 01:36:40;;;;;;;54.37;26.43;;;;;;;7.65;100.00;100753.19;2089757;28;20482;-65
2021/11/13 01:37:41;;;;;;;55.20;26.83;;;;;;;7.65;100.00;100745.38;2089854;28;20033;-64
2021/11/13 01:38:42;;;;;;;50.33;25.77;;;;;;;7.66;100.00;100749.72;2090372;28;20020;-64
2021/11/13 01:39:42;;;;;;;45.10;23.85;;;;;;;7.66;100.00;100750.53;2090402;28;20056;-63
2021/11/13 01:40:44;;;;;;;52.20;25.70;;;;;;;7.68;100.00;100745.28;2089678;28;20068;-64
2021/11/13 01:41:45;;;;;;;43.97;24.30;;;;;;;7.68;100.00;100748.75;2089779;28;20032;-64
2021/11/13 01:42:46;;;;;;;54.30;25.35;;;;;;;7.70;100.00;100754.72;2090160;28;20024;-64
2021/11/13 01:43:46;;;;;;;53.08;25.27;;;;;;;7.71;100.00;100746.06;2089829;28;20371;-64
2021/11/13 01:44:46;;;;;;;50.50;26.10;;;;;;;7.74;100.00;100745.13;2090347;28;20063;-65
2021/11/13 01:45:47;;;;;;;42.63;25.27;;;;;;;7.75;100.00;100740.75;2090380;28;20029;-64
2021/11/13 01:46:47;;;;;;;42.27;22.93;;;;;;;7.76;100.00;100742.47;2090340;28;20025;-65
2021/11/13 01:47:48;;;;;;;42.70;23.90;;;;;;;7.78;100.00;100751.91;2090397;28;20033;-64
2021/11/13 01:48:48;;;;;;;47.83;24.83;;;;;;;7.78;100.00;100736.31;2090384;28;20028;-63
2021/11/13 01:49:49;;;;;;;39.80;21.47;;;;;;;7.79;100.00;100734.56;2090315;28;20028;-65
2021/11/13 01:50:49;;;;;;;38.60;22.48;;;;;;;7.80;100.00;100741.47;2090361;28;20033;-64
2021/11/13 01:51:50;;;;;;;43.20;21.37;;;;;;;7.81;100.00;100738.81;2090361;28;20535;-64
2021/11/13 01:52:50;;;;;;;44.20;23.45;;;;;;;7.80;100.00;100742.31;2090254;28;20493;-64
2021/11/13 01:53:54;;;;;;;41.33;22.83;;;;;;;7.82;100.00;100737.06;2090320;28;20029;-64
2021/11/13 01:54:54;;;;;;;35.53;20.27;;;;;;;7.81;100.00;100743.16;2090299;28;20043;-65
2021/11/13 01:55:56;;;;;;;45.17;23.30;;;;;;;7.82;100.00;100737.91;2090306;28;20398;-63
2021/11/13 01:56:56;;;;;;;39.75;21.42;;;;;;;7.82;100.00;100732.72;2090331;28;20395;-64
2021/11/13 01:58:01;;;;;;;36.77;20.67;;;;;;;7.83;100.00;100725.75;2090345;28;20032;-65
2021/11/13 01:59:04;;;;;;;40.33;20.65;;;;;;;7.83;100.00;100728.34;2090346;28;20024;-63
2021/11/13 02:00:05;;;;;;;39.35;22.33;;;;;;;7.84;100.00;100724.88;2090236;28;20375;-64
2021/11/13 02:01:05;;;;;;;44.20;20.67;;;;;;;7.87;100.00;100729.94;2089548;28;20064;-64
2021/11/13 02:02:06;;;;;;;32.27;19.40;;;;;;;7.89;100.00;100738.56;2089526;28;20036;-64
2021/11/13 02:03:06;;;;;;;34.75;21.00;;;;;;;7.91;100.00;100725.53;2090301;28;20040;-64
2021/11/13 02:04:07;;;;;;;37.27;20.53;;;;;;;7.94;100.00;100725.44;2089323;28;20057;-64
2021/11/13 02:05:07;;;;;;;31.37;19.97;;;;;;;7.94;100.00;100726.25;2089654;28;20079;-64
2021/11/13 02:06:08;;;;;;;30.40;19.00;;;;;;;7.96;100.00;100732.28;2090135;28;20106;-63
2021/11/13 02:07:08;;;;;;;36.77;19.37;;;;;;;7.97;100.00;100725.31;2090257;28;20025;-63
2021/11/13 02:08:08;;;;;;;36.10;20.17;;;;;;;7.98;100.00;100727.03;2090188;28;20064;-64
2021/11/13 02:09:09;;;;;;;33.67;20.03;;;;;;;7.98;100.00;100724.41;2089724;28;20025;-65
2021/11/13 02:10:11;;;;;;;35.30;18.63;;;;;;;7.99;100.00;100720.91;2089668;28;20028;-64
2021/11/13 02:11:13;;;;;;;33.05;20.05;;;;;;;8.01;100.00;100716.53;2090237;28;20454;-64
2021/11/13 02:12:14;;;;;;;33.00;19.23;;;;;;;8.01;100.00;100721.72;2090139;28;20086;-64
2021/11/13 02:13:15;;;;;;;27.73;18.27;;;;;;;8.02;100.00;100718.22;2090204;28;20470;-64
2021/11/13 02:14:15;;;;;;;28.63;19.10;;;;;;;8.04;100.00;100720.78;2090126;28;20537;-64
2021/11/13 02:15:15;;;;;;;29.27;18.83;;;;;;;8.06;100.00;100713.75;2090237;28;20381;-64
2021/11/13 02:16:16;;;;;;;28.47;15.87;;;;;;;8.06;100.00;100717.22;2090176;28;20056;-65
2021/11/13 02:17:16;;;;;;;27.63;15.98;;;;;;;8.08;100.00;100715.41;2089517;28;20025;-65
2021/11/13 02:18:16;;;;;;;28.00;17.33;;;;;;;8.09;100.00;100719.72;2089587;28;20044;-63
2021/11/13 02:19:18;;;;;;;32.07;17.80;;;;;;;8.09;100.00;100717.13;2090326;28;20145;-64
2021/11/13 02:20:24;;;;;;;24.35;16.48;;;;;;;8.10;100.00;100715.34;2090117;28;20037;-64
2021/11/13 02:21:26;;;;;;;24.42;16.20;;;;;;;8.11;100.00;100710.09;2090179;28;20101;-63
2021/11/13 02:22:27;;;;;;;26.55;15.55;;;;;;;8.11;100.00;100710.09;2089461;28;20074;-63
2021/11/13 02:23:27;;;;;;;27.53;16.27;;;;;;;8.12;100.00;100711.78;2089506;28;20119;-63
2021/11/13 02:24:27;;;;;;;23.93;16.30;;;;;;;8.15;100.00;100707.41;2089544;28;20021;-64
2021/11/13 02:25:30;;;;;;;25.90;15.93;;;;;;;8.16;100.00;100707.34;2089626;28;20120;-64
2021/11/13 02:26:30;;;;;;;25.10;15.48;;;;;;;8.17;100.00;100710.78;2090087;28;20028;-65
2021/11/13 02:27:31;;;;;;;24.48;16.88;;;;;;;8.16;100.00;100715.16;2089489;28;20489;-65
2021/11/13 02:28:35;;;;;;;22.83;15.00;;;;;;;8.17;100.00;100706.44;2089696;28;20052;-64
2021/11/13 02:29:36;;;;;;;23.25;15.80;;;;;;;8.18;100.00;100710.72;2090122;28;20291;-64
2021/11/13 02:30:37;;;;;;;23.38;15.73;;;;;;;8.19;100.00;100707.25;2090071;28;20037;-64
2021/11/13 02:31:39;;;;;;;;;;;;;;;8.19;100.00;100712.44;2090570;28;20071;-64
2021/11/13 02:32:40;;;;;;;;;;;;;;;8.19;100.00;100709.00;2090541;28;19909;-64
2021/11/13 02:33:40;;;;;;;21.20;14.02;;;;;;;8.21;100.00;100702.00;2090122;28;19917;-63
2021/11/13 02:34:41;;;;;;;18.95;13.38;;;;;;;8.23;100.00;100703.63;2090103;28;20025;-64
2021/11/13 02:35:42;;;;;;;22.83;14.30;;;;;;;8.22;100.00;100704.53;2090096;28;20029;-64
2021/11/13 02:36:42;;;;;;;21.10;14.43;;;;;;;8.21;100.00;100702.00;2090132;28;20036;-64
2021/11/13 02:37:44;;;;;;;23.33;14.27;;;;;;;8.21;100.00;100702.84;2090123;28;20066;-64
2021/11/13 02:38:45;;;;;;;20.17;13.60;;;;;;;8.22;100.00;100706.28;2090054;28;20390;-64
2021/11/13 02:39:46;;;;;;;24.83;15.60;;;;;;;8.22;100.00;100701.09;2090094;28;20113;-65
2021/11/13 02:40:54;;;;;;;22.08;13.32;;;;;;;8.22;100.00;100696.72;2090099;28;20028;-64
2021/11/13 02:41:54;;;;;;;20.55;14.13;;;;;;;8.22;100.00;100704.53;2089951;28;20044;-63
2021/11/13 02:42:56;;;;;;;20.67;14.20;;;;;;;8.22;100.00;100694.13;2090092;28;20029;-65
2021/11/13 02:43:58;;;;;;;18.98;13.50;;;;;;;8.24;100.00;100697.53;2090020;28;20025;-64
2021/11/13 02:44:59;;;;;;;19.15;13.38;;;;;;;8.24;100.00;100700.13;2090043;28;20029;-63
2021/11/13 02:46:03;;;;;;;18.52;12.80;;;;;;;8.25;100.00;100690.59;2089993;28;20032;-64
2021/11/13 02:47:03;;;;;;;17.95;13.63;;;;;;;8.26;100.00;100694.88;2090128;28;20393;-64
2021/11/13 02:48:05;;;;;;;23.67;14.85;;;;;;;8.27;100.00;100685.31;2090034;28;20032;-64
2021/11/13 02:49:07;;;;;;;18.88;12.90;;;;;;;8.28;100.00;100692.22;2090062;28;20060;-64
2021/11/13 02:50:10;;;;;;;22.60;14.25;;;;;;;8.28;100.00;100693.06;2089996;28;20040;-64
2021/11/13 02:51:11;;;;;;;17.63;13.98;;;;;;;8.29;100.00;100693.91;2090034;28;20025;-65
2021/11/13 02:52:12;;;;;;;21.98;13.73;;;;;;;8.28;100.00;100689.63;2089388;28;20037;-64
2021/11/13 02:53:15;;;;;;;19.30;12.80;;;;;;;8.28;100.00;100692.22;2089433;28;20025;-64
2021/11/13 02:54:16;;;;;;;18.63;13.45;;;;;;;8.28;100.00;100689.63;2089345;28;20021;-64
2021/11/13 02:55:16;;;;;;;16.57;12.60;;;;;;;8.29;100.00;100694.78;2082735;28;20057;-64
2021/11/13 02:56:17;;;;;;;17.20;13.15;;;;;;;8.28;100.00;100684.44;2091118;28;20025;-64
2021/11/13 02:57:17;;;;;;;16.67;11.77;;;;;;;8.28;100.00;100682.66;2091170;28;20123;-64
2021/11/13 02:58:20;;;;;;;17.52;14.10;;;;;;;8.31;100.00;100692.13;2091078;28;20116;-64
2021/11/13 02:59:20;;;;;;;19.85;14.43;;;;;;;8.30;100.00;100690.41;2091657;28;20062;-65
2021/11/13 03:00:24;;;;;;;19.00;12.40;;;;;;;8.30;100.00;100685.22;2091649;28;20486;-65
2021/11/13 03:01:24;;;;;;;21.10;13.27;;;;;;;8.30;100.00;100695.59;2091625;28;20368;-64
2021/11/13 03:02:24;;;;;;;15.40;11.27;;;;;;;8.29;100.00;100686.13;2091597;28;20032;-64
2021/11/13 03:03:25;;;;;;;16.90;12.03;;;;;;;8.28;100.00;100687.03;2091679;28;20017;-65
2021/11/13 03:04:26;;;;;;;18.52;12.63;;;;;;;8.28;100.00;100692.22;2091476;28;20044;-63
2021/11/13 03:05:29;;;;;;;19.20;11.50;;;;;;;8.28;100.00;100689.63;2091590;28;20033;-64
2021/11/13 03:06:30;;;;;;;16.90;11.13;;;;;;;8.28;100.00;100689.63;2091500;28;20072;-65
2021/11/13 03:07:30;;;;;;;16.13;11.93;;;;;;;8.28;100.00;100692.22;2091603;28;20028;-64
2021/11/13 03:08:33;;;;;;;17.50;11.47;;;;;;;8.28;100.00;100692.22;2091610;28;20020;-64
2021/11/13 03:09:36;;;;;;;17.70;12.32;;;;;;;8.30;100.00;100691.28;2091533;28;20064;-64
2021/11/13 03:10:37;;;;;;;14.63;11.05;;;;;;;8.30;100.00;100690.41;2091554;28;20027;-64
2021/11/13 03:11:37;;;;;;;15.10;11.73;;;;;;;8.31;100.00;100689.53;2091559;28;20053;-64
2021/11/13 03:12:38;;;;;;;15.97;10.83;;;;;;;8.29;100.00;100688.72;2090918;28;20104;-64
2021/11/13 03:13:41;;;;;;;14.70;10.63;;;;;;;8.29;100.00;100689.56;2082643;28;20026;-63
2021/11/13 03:14:41;;;;;;;13.98;10.45;;;;;;;8.30;100.00;100690.41;2082835;28;20025;-64
2021/11/13 03:15:41;;;;;;;16.13;10.97;;;;;;;8.30;100.00;100698.22;2091024;28;20021;-65
2021/11/13 03:16:42;;;;;;;15.73;10.67;;;;;;;8.30;100.00;100698.22;2091534;28;20033;-64
2021/11/13 03:17:42;;;;;;;13.00;10.97;;;;;;;8.30;100.00;100695.59;2091470;28;20029;-64
2021/11/13 03:18:44;;;;;;;13.23;10.32;;;;;;;8.30;100.00;100700.81;2091527;28;20032;-64
2021/11/13 03:19:44;;;;;;;13.60;11.07;;;;;;;8.31;100.00;100686.94;2090882;28;20028;-65
2021/11/13 03:20:44;;;;;;;12.70;10.13;;;;;;;8.31;100.00;100697.34;2090961;28;20410;-64
2021/11/13 03:21:44;;;;;;;16.10;10.53;;;;;;;8.32;100.00;100699.03;2091500;28;20025;-65
2021/11/13 03:22:46;;;;;;;14.43;11.27;;;;;;;8.31;100.00;100698.16;2091531;28;20389;-64
2021/11/13 03:23:47;;;;;;;12.65;10.70;;;;;;;8.32;100.00;100692.03;2091487;28;20021;-65
2021/11/13 03:24:47;;;;;;;13.13;10.05;;;;;;;8.34;100.00;100699.78;2090818;28;20033;-64
2021/11/13 03:26:03;;;;;;;14.10;10.10;;;;;;;8.34;100.00;100698.06;2090906;28;20039;-64
2021/11/13 03:27:03;;;;;;;13.90;10.80;;;;;;;8.34;100.00;100699.78;2090751;28;20478;-64
2021/11/13 03:28:08;;;;;;;12.50;10.02;;;;;;;8.35;100.00;100698.91;2090969;28;20103;-65
2021/11/13 03:29:13;;;;;;;11.73;10.07;;;;;;;8.35;100.00;100696.31;2091534;28;20139;-66
2021/11/13 03:30:14;;;;;;;12.95;9.80;;;;;;;8.36;100.00;100695.41;2091250;28;20029;-64
2021/11/13 03:31:15;;;;;;;13.65;9.95;;;;;;;8.35;100.00;100698.91;2091534;28;20021;-64
2021/11/13 03:32:15;;;;;;;15.60;10.05;;;;;;;8.35;100.00;100699.75;2091412;28;20056;-64
2021/11/13 03:33:17;;;;;;;12.80;9.07;;;;;;;8.36;100.00;100690.19;2090758;28;20493;-64
2021/11/13 03:34:17;;;;;;;13.57;10.05;;;;;;;8.37;100.00;100702.28;2090815;28;20491;-64
2021/11/13 03:35:27;;;;;;;13.63;9.33;;;;;;;8.37;100.00;100697.09;2090790;28;20049;-65
2021/11/13 03:36:27;;;;;;;12.95;10.13;;;;;;;8.36;100.00;100705.81;2090863;28;20017;-63
2021/11/13 03:37:27;;;;;;;11.67;9.63;;;;;;;8.37;100.00;100691.91;2091391;28;20052;-64
2021/11/13 03:38:28;;;;;;;13.37;10.80;;;;;;;8.37;100.00;100692.75;2090748;28;20100;-64
2021/11/13 03:39:28;;;;;;;13.07;10.37;;;;;;;8.37;100.00;100697.09;2090783;28;20379;-65
2021/11/13 03:40:28;;;;;;;12.83;9.70;;;;;;;8.39;100.00;100692.69;2090703;28;20052;-64
2021/11/13 03:41:30;;;;;;;11.93;9.63;;;;;;;8.39;100.00;100695.31;2090713;28;20025;-64
2021/11/13 03:42:31;;;;;;;;;;;;;;;8.40;100.00;100696.13;2091139;28;20033;-64
2021/11/13 03:43:34;;;;;;;13.43;9.85;;;;;;;8.40;100.00;100693.53;2091419;28;19908;-64
2021/11/13 03:44:35;;;;;;;12.77;9.27;;;;;;;8.40;100.00;100685.72;2091313;28;20397;-64
2021/11/13 03:45:37;;;;;;;12.00;9.50;;;;;;;8.41;100.00;100688.28;2091270;28;20025;-64
2021/11/13 03:46:37;;;;;;;11.77;9.38;;;;;;;8.41;100.00;100688.28;2091209;28;20037;-64
2021/11/13 03:47:37;;;;;;;10.53;8.57;;;;;;;8.41;100.00;100688.28;2091341;28;20044;-65
2021/11/13 03:48:38;;;;;;;11.33;9.27;;;;;;;8.41;100.00;100688.28;2091419;28;20029;-65
2021/11/13 03:49:38;;;;;;;12.85;8.38;;;;;;;8.42;100.00;100682.16;2091320;28;20025;-65
2021/11/13 03:50:38;;;;;;;12.03;8.93;;;;;;;8.42;100.00;100684.75;2091280;28;20546;-64
2021/11/13 03:51:39;;;;;;;11.60;9.70;;;;;;;8.42;100.00;100686.53;2091348;28;20048;-64
2021/11/13 03:52:39;;;;;;;12.20;8.87;;;;;;;8.43;100.00;100685.63;2091248;28;20471;-66
2021/11/13 03:53:39;;;;;;;11.50;8.67;;;;;;;8.43;100.00;100688.22;2091260;28;20020;-66
2021/11/13 03:54:40;;;;;;;12.93;9.60;;;;;;;8.45;100.00;100689.88;2091176;28;20051;-65
2021/11/13 03:55:41;;;;;;;11.83;8.53;;;;;;;8.42;100.00;100684.75;2091289;28;20064;-64
2021/11/13 03:56:41;;;;;;;13.40;9.07;;;;;;;8.42;100.00;100695.16;2091221;28;20036;-65
2021/11/13 03:57:41;;;;;;;12.37;9.37;;;;;;;8.42;100.00;100679.56;2091259;28;20367;-65
2021/11/13 03:58:42;;;;;;;12.90;9.37;;;;;;;8.45;100.00;100679.47;2091158;28;20025;-64
2021/11/13 03:59:43;;;;;;;11.55;8.98;;;;;;;8.46;100.00;100680.31;2090446;28;20039;-64
2021/11/13 04:00:43;;;;;;;10.88;8.43;;;;;;;8.47;100.00;100688.06;2090575;28;20056;-65
2021/11/13 04:01:43;;;;;;;9.90;8.20;;;;;;;8.46;100.00;100681.16;2091163;28;20052;-64
2021/11/13 04:02:46;;;;;;;10.00;8.20;;;;;;;8.47;100.00;100682.88;2091213;28;20017;-64
2021/11/13 04:03:46;;;;;;;9.80;7.88;;;;;;;8.46;100.00;100686.34;2090385;28;20033;-64
2021/11/13 04:04:47;;;;;;;11.77;8.93;;;;;;;8.48;100.00;100684.56;2090661;28;20472;-64
2021/11/13 04:05:47;;;;;;;11.27;8.47;;;;;;;8.48;100.00;100684.56;2090984;28;20029;-64
2021/11/13 04:06:47;;;;;;;9.40;8.40;;;;;;;8.49;100.00;100681.03;2090253;28;20029;-63
2021/11/13 04:07:49;;;;;;;10.77;7.97;;;;;;;8.50;100.00;100679.31;2091181;28;20070;-65
2021/11/13 04:08:49;;;;;;;11.18;8.57;;;;;;;8.49;100.00;100675.00;2091176;28;20025;-64
2021/11/13 04:09:50;;;;;;;11.03;8.73;;;;;;;8.49;100.00;100675.84;2091108;28;20027;-64
2021/11/13 04:10:50;;;;;;;9.73;8.23;;;;;;;8.50;100.00;100679.31;2091172;28;20025;-65
2021/11/13 04:11:50;;;;;;;12.27;8.93;;;;;;;8.50;100.00;100677.56;2091203;28;20386;-65
2021/11/13 04:12:51;;;;;;;10.27;8.43;;;;;;;8.51;100.00;100683.59;2091158;28;20078;-64
2021/11/13 04:13:51;;;;;;;10.75;8.88;;;;;;;8.52;100.00;100689.66;2090419;28;20033;-64
2021/11/13 04:14:52;;;;;;;9.77;7.83;;;;;;;8.53;100.00;100680.94;2090558;28;20021;-64
2021/11/13 04:15:52;;;;;;;10.10;8.03;;;;;;;8.53;100.00;100686.13;2091009;28;20040;-65
2021/11/13 04:16:52;;;;;;;12.37;8.10;;;;;;;8.54;100.00;100682.66;2091102;28;20028;-65
2021/11/13 04:17:53;;;;;;;11.20;8.30;;;;;;;8.53;100.00;100692.22;2090482;28;20036;-64
2021/11/13 04:18:53;;;;;;;12.57;8.23;;;;;;;8.53;100.00;100686.13;2090300;28;20061;-65
2021/11/13 04:19:54;;;;;;;11.23;8.48;;;;;;;8.54;100.00;100682.66;2090490;28;20127;-64
2021/11/13 04:20:54;;;;;;;9.37;7.90;;;;;;;8.53;100.00;100691.34;2091007;28;20025;-64
2021/11/13 04:21:55;;;;;;;11.17;7.93;;;;;;;8.53;100.00;100683.53;2091043;28;20508;-63
2021/11/13 04:22:55;;;;;;;11.80;8.77;;;;;;;8.54;100.00;100683.53;2091070;28;20052;-64
2021/11/13 04:23:55;;;;;;;12.90;8.87;;;;;;;8.54;100.00;100680.91;2091063;28;20622;-63
2021/11/13 04:24:56;;;;;;;12.60;8.67;;;;;;;8.55;100.00;100689.59;2091050;28;20507;-63
2021/11/13 04:25:56;;;;;;;10.90;8.23;;;;;;;8.56;100.00;100681.72;2090990;28;20455;-63
2021/11/13 04:26:56;;;;;;;13.47;8.97;;;;;;;8.57;100.00;100682.56;2091028;28;20502;-64
2021/11/13 04:27:56;;;;;;;9.07;8.10;;;;;;;8.57;100.00;100688.63;2090378;28;20422;-64
2021/11/13 04:28:57;;;;;;;11.53;9.13;;;;;;;8.57;100.00;100695.56;2090396;28;20032;-64
2021/11/13 04:29:57;;;;;;;12.47;9.10;;;;;;;8.58;100.00;100694.66;2090276;28;20544;-65
2021/11/13 04:30:57;;;;;;;10.20;7.63;;;;;;;8.59;100.00;100691.16;2090339;28;20063;-65
2021/11/13 04:31:58;;;;;;;12.33;8.40;;;;;;;8.59;100.00;100680.75;2090982;28;20024;-65
2021/11/13 04:32:58;;;;;;;10.57;8.27;;;;;;;8.61;100.00;100689.34;2091044;28;20333;-65
2021/11/13 04:34:02;;;;;;;10.40;8.27;;;;;;;8.60;100.00;100687.66;2090294;28;20025;-65
2021/11/13 04:35:34;;;;;;;10.52;8.48;;;;;;;8.61;100.00;100690.19;2090407;28;20021;-65
2021/11/13 04:36:38;;;;;;;11.38;8.52;;;;;;;8.62;100.00;100685.81;2090924;28;20382;-65
2021/11/13 04:37:38;;;;;;;10.50;7.78;;;;;;;8.62;100.00;100685.81;2090997;28;20021;-64
2021/11/13 04:38:38;;;;;;;10.10;8.30;;;;;;;8.63;100.00;100690.16;2090910;28;20104;-64